sensor_id;sensor_type;location;lat;lon;timestamp;temperature;humidity
64499;SHT31;51087;55.718;21.122;2023-02-01T00:01:55;0.92;99.99
64499;SHT31;51087;55.718;21.122;2023-02-01T00:04:20;0.98;99.99
64499;SHT31;51087;55.718;21.122;2023-02-01T00:06:46;1.02;99.99
64499;SHT31;51087;55.718;21.122;2023-02-01T00:09:11;1.02;99.99
64499;SHT31;51087;55.718;21.122;2023-02-01T00:11:37;1.07;99.99
64499;SHT31;51087;55.718;21.122;2023-02-01T00:14:02;1.11;99.99
64499;SHT31;51087;55.718;21.122;2023-02-01T00:16:29;1.15;99.99
64499;SHT31;51087;55.718;21.122;2023-02-01T00:19:07;1.24;99.99
64499;SHT31;51087;55.718;21.122;2023-02-01T00:21:33;1.38;99.99
64499;SHT31;51087;55.718;21.122;2023-02-01T00:23:58;1.77;99.99
64499;SHT31;51087;55.718;21.122;2023-02-01T00:26:40;2.22;99.99
64499;SHT31;51087;55.718;21.122;2023-02-01T00:29:12;2.84;99.99
64499;SHT31;51087;55.718;21.122;2023-02-01T00:31:38;3.12;99.99
64499;SHT31;51087;55.718;21.122;2023-02-01T00:34:04;3.34;99.99
64499;SHT31;51087;55.718;21.122;2023-02-01T00:36:29;3.36;99.99
64499;SHT31;51087;55.718;21.122;2023-02-01T00:38:55;3.42;99.99
64499;SHT31;51087;55.718;21.122;2023-02-01T00:41:22;3.42;99.99
64499;SHT31;51087;55.718;21.122;2023-02-01T00:43:48;3.40;99.99
64499;SHT31;51087;55.718;21.122;2023-02-01T00:46:15;3.39;99.99
64499;SHT31;51087;55.718;21.122;2023-02-01T00:48:41;3.36;99.99
64499;SHT31;51087;55.718;21.122;2023-02-01T00:51:09;3.43;99.99
64499;SHT31;51087;55.718;21.122;2023-02-01T00:53:35;3.46;99.99
64499;SHT31;51087;55.718;21.122;2023-02-01T00:56:02;3.46;99.99
64499;SHT31;51087;55.718;21.122;2023-02-01T00:58:28;3.43;99.99
64499;SHT31;51087;55.718;21.122;2023-02-01T01:01:08;3.35;99.99
64499;SHT31;51087;55.718;21.122;2023-02-01T01:03:37;3.36;99.99
64499;SHT31;51087;55.718;21.122;2023-02-01T01:06:08;3.40;99.99
64499;SHT31;51087;55.718;21.122;2023-02-01T01:08:34;3.40;99.99
64499;SHT31;51087;55.718;21.122;2023-02-01T01:11:08;3.39;99.99
64499;SHT31;51087;55.718;21.122;2023-02-01T01:13:34;3.39;99.99
64499;SHT31;51087;55.718;21.122;2023-02-01T01:16:01;3.36;99.99
64499;SHT31;51087;55.718;21.122;2023-02-01T01:18:28;3.29;99.99
64499;SHT31;51087;55.718;21.122;2023-02-01T01:20:53;3.31;99.99
64499;SHT31;51087;55.718;21.122;2023-02-01T01:23:19;3.34;99.99
64499;SHT31;51087;55.718;21.122;2023-02-01T01:25:44;3.40;99.99
64499;SHT31;51087;55.718;21.122;2023-02-01T01:28:10;3.38;99.99
64499;SHT31;51087;55.718;21.122;2023-02-01T01:30:35;3.35;99.99
64499;SHT31;51087;55.718;21.122;2023-02-01T01:33:01;3.35;99.99
64499;SHT31;51087;55.718;21.122;2023-02-01T01:35:29;3.39;99.99
64499;SHT31;51087;55.718;21.122;2023-02-01T01:37:55;3.39;99.99
64499;SHT31;51087;55.718;21.122;2023-02-01T01:40:20;3.39;99.99
64499;SHT31;51087;55.718;21.122;2023-02-01T01:42:46;3.40;99.99
64499;SHT31;51087;55.718;21.122;2023-02-01T01:45:25;3.43;99.99
64499;SHT31;51087;55.718;21.122;2023-02-01T01:50:29;3.40;99.99
64499;SHT31;51087;55.718;21.122;2023-02-01T01:52:57;3.39;99.99
64499;SHT31;51087;55.718;21.122;2023-02-01T01:55:26;3.43;99.99
64499;SHT31;51087;55.718;21.122;2023-02-01T01:58:08;3.45;99.99
64499;SHT31;51087;55.718;21.122;2023-02-01T02:00:35;3.46;99.99
64499;SHT31;51087;55.718;21.122;2023-02-01T02:03:14;3.42;99.99
64499;SHT31;51087;55.718;21.122;2023-02-01T02:05:40;3.46;99.99
64499;SHT31;51087;55.718;21.122;2023-02-01T02:08:05;3.51;99.99
64499;SHT31;51087;55.718;21.122;2023-02-01T02:10:31;3.48;99.99
64499;SHT31;51087;55.718;21.122;2023-02-01T02:13:16;3.45;99.99
64499;SHT31;51087;55.718;21.122;2023-02-01T02:15:46;3.49;99.99
64499;SHT31;51087;55.718;21.122;2023-02-01T02:26:51;3.46;99.99
64499;SHT31;51087;55.718;21.122;2023-02-01T02:29:30;3.46;99.99
64499;SHT31;51087;55.718;21.122;2023-02-01T02:34:49;3.53;99.99
64499;SHT31;51087;55.718;21.122;2023-02-01T02:37:39;3.53;99.99
64499;SHT31;51087;55.718;21.122;2023-02-01T02:42:43;3.56;99.99
64499;SHT31;51087;55.718;21.122;2023-02-01T02:51:32;3.53;99.99
64499;SHT31;51087;55.718;21.122;2023-02-01T02:54:28;3.55;99.99
64499;SHT31;51087;55.718;21.122;2023-02-01T02:57:35;3.49;99.99
64499;SHT31;51087;55.718;21.122;2023-02-01T03:00:23;3.55;99.99
64499;SHT31;51087;55.718;21.122;2023-02-01T03:03:08;3.56;99.99
64499;SHT31;51087;55.718;21.122;2023-02-01T03:05:52;3.53;99.99
64499;SHT31;51087;55.718;21.122;2023-02-01T03:08:26;3.58;99.99
64499;SHT31;51087;55.718;21.122;2023-02-01T03:11:09;3.64;99.99
64499;SHT31;51087;55.718;21.122;2023-02-01T03:16:18;3.70;99.61
64499;SHT31;51087;55.718;21.122;2023-02-01T03:21:22;3.69;99.21
64499;SHT31;51087;55.718;21.122;2023-02-01T03:23:50;3.74;99.56
64499;SHT31;51087;55.718;21.122;2023-02-01T03:26:18;3.67;99.99
64499;SHT31;51087;55.718;21.122;2023-02-01T03:28:49;3.63;99.99
64499;SHT31;51087;55.718;21.122;2023-02-01T03:31:17;3.60;99.99
64499;SHT31;51087;55.718;21.122;2023-02-01T03:33:42;3.55;99.99
64499;SHT31;51087;55.718;21.122;2023-02-01T03:38:52;3.49;99.99
64499;SHT31;51087;55.718;21.122;2023-02-01T03:46:57;3.49;99.99
64499;SHT31;51087;55.718;21.122;2023-02-01T03:49:35;3.51;99.99
64499;SHT31;51087;55.718;21.122;2023-02-01T03:52:02;3.62;99.99
64499;SHT31;51087;55.718;21.122;2023-02-01T03:54:29;3.69;99.99
64499;SHT31;51087;55.718;21.122;2023-02-01T03:56:57;3.72;99.99
64499;SHT31;51087;55.718;21.122;2023-02-01T03:59:24;3.74;99.99
64499;SHT31;51087;55.718;21.122;2023-02-01T04:01:49;3.79;99.76
64499;SHT31;51087;55.718;21.122;2023-02-01T04:04:16;3.82;99.68
64499;SHT31;51087;55.718;21.122;2023-02-01T04:06:49;3.80;99.99
64499;SHT31;51087;55.718;21.122;2023-02-01T04:09:15;3.84;99.99
64499;SHT31;51087;55.718;21.122;2023-02-01T04:11:40;3.89;99.62
64499;SHT31;51087;55.718;21.122;2023-02-01T04:14:06;3.87;99.58
64499;SHT31;51087;55.718;21.122;2023-02-01T04:16:32;3.84;99.53
64499;SHT31;51087;55.718;21.122;2023-02-01T04:18:58;3.84;99.83
64499;SHT31;51087;55.718;21.122;2023-02-01T04:21:25;3.89;99.19
64499;SHT31;51087;55.718;21.122;2023-02-01T04:23:50;3.87;99.57
64499;SHT31;51087;55.718;21.122;2023-02-01T04:26:16;3.87;99.28
64499;SHT31;51087;55.718;21.122;2023-02-01T04:28:42;3.52;98.69
64499;SHT31;51087;55.718;21.122;2023-02-01T04:31:07;2.91;99.99
64499;SHT31;51087;55.718;21.122;2023-02-01T04:33:33;2.64;99.99
64499;SHT31;51087;55.718;21.122;2023-02-01T04:35:58;2.57;99.99
64499;SHT31;51087;55.718;21.122;2023-02-01T04:38:24;2.59;99.99
64499;SHT31;51087;55.718;21.122;2023-02-01T04:40:50;2.62;99.99
64499;SHT31;51087;55.718;21.122;2023-02-01T04:43:16;2.54;99.99
64499;SHT31;51087;55.718;21.122;2023-02-01T04:45:47;2.31;99.99
64499;SHT31;51087;55.718;21.122;2023-02-01T04:48:13;2.28;99.99
64499;SHT31;51087;55.718;21.122;2023-02-01T04:50:38;2.29;99.99
64499;SHT31;51087;55.718;21.122;2023-02-01T04:53:03;2.38;99.99
64499;SHT31;51087;55.718;21.122;2023-02-01T04:55:29;2.42;99.99
64499;SHT31;51087;55.718;21.122;2023-02-01T04:57:55;2.54;99.99
64499;SHT31;51087;55.718;21.122;2023-02-01T05:00:21;2.75;99.99
64499;SHT31;51087;55.718;21.122;2023-02-01T05:02:48;2.77;99.99
64499;SHT31;51087;55.718;21.122;2023-02-01T05:05:13;2.96;99.99
64499;SHT31;51087;55.718;21.122;2023-02-01T05:07:39;3.22;99.99
64499;SHT31;51087;55.718;21.122;2023-02-01T05:10:04;3.29;99.99
64499;SHT31;51087;55.718;21.122;2023-02-01T05:12:30;3.46;99.99
64499;SHT31;51087;55.718;21.122;2023-02-01T05:15:14;3.55;99.99
64499;SHT31;51087;55.718;21.122;2023-02-01T05:17:39;3.59;99.99
64499;SHT31;51087;55.718;21.122;2023-02-01T05:20:06;3.60;99.99
64499;SHT31;51087;55.718;21.122;2023-02-01T05:22:32;3.60;99.99
64499;SHT31;51087;55.718;21.122;2023-02-01T05:24:57;3.62;99.99
64499;SHT31;51087;55.718;21.122;2023-02-01T05:27:23;3.64;99.99
64499;SHT31;51087;55.718;21.122;2023-02-01T05:29:48;3.67;99.99
64499;SHT31;51087;55.718;21.122;2023-02-01T05:32:14;3.70;99.99
64499;SHT31;51087;55.718;21.122;2023-02-01T05:34:39;3.64;99.99
64499;SHT31;51087;55.718;21.122;2023-02-01T05:37:05;3.69;99.99
64499;SHT31;51087;55.718;21.122;2023-02-01T05:39:30;3.66;99.99
64499;SHT31;51087;55.718;21.122;2023-02-01T05:41:56;3.62;99.99
64499;SHT31;51087;55.718;21.122;2023-02-01T05:44:21;3.66;99.99
64499;SHT31;51087;55.718;21.122;2023-02-01T05:46:46;3.70;99.99
64499;SHT31;51087;55.718;21.122;2023-02-01T05:49:12;3.67;99.99
64499;SHT31;51087;55.718;21.122;2023-02-01T05:51:37;3.70;99.99
64499;SHT31;51087;55.718;21.122;2023-02-01T05:54:03;3.73;99.99
64499;SHT31;51087;55.718;21.122;2023-02-01T05:56:28;3.64;99.99
64499;SHT31;51087;55.718;21.122;2023-02-01T05:58:55;3.48;99.99
64499;SHT31;51087;55.718;21.122;2023-02-01T06:01:20;3.15;99.99
64499;SHT31;51087;55.718;21.122;2023-02-01T06:03:45;2.98;99.99
64499;SHT31;51087;55.718;21.122;2023-02-01T06:06:11;2.83;99.99
64499;SHT31;51087;55.718;21.122;2023-02-01T06:08:36;2.70;99.99
64499;SHT31;51087;55.718;21.122;2023-02-01T06:11:06;2.43;99.99
64499;SHT31;51087;55.718;21.122;2023-02-01T06:13:32;2.35;99.99
64499;SHT31;51087;55.718;21.122;2023-02-01T06:15:58;2.33;99.99
64499;SHT31;51087;55.718;21.122;2023-02-01T06:18:24;2.42;99.99
64499;SHT31;51087;55.718;21.122;2023-02-01T06:20:57;2.38;99.99
64499;SHT31;51087;55.718;21.122;2023-02-01T06:23:25;2.41;99.99
64499;SHT31;51087;55.718;21.122;2023-02-01T06:25:58;2.39;99.99
64499;SHT31;51087;55.718;21.122;2023-02-01T06:28:24;2.42;99.99
64499;SHT31;51087;55.718;21.122;2023-02-01T06:30:50;2.42;99.99
64499;SHT31;51087;55.718;21.122;2023-02-01T06:33:15;2.45;99.99
64499;SHT31;51087;55.718;21.122;2023-02-01T06:35:42;2.42;99.99
64499;SHT31;51087;55.718;21.122;2023-02-01T06:38:10;2.49;99.99
64499;SHT31;51087;55.718;21.122;2023-02-01T06:40:36;2.49;99.99
64499;SHT31;51087;55.718;21.122;2023-02-01T06:43:02;2.56;99.99
64499;SHT31;51087;55.718;21.122;2023-02-01T06:45:27;2.59;99.99
64499;SHT31;51087;55.718;21.122;2023-02-01T06:47:53;2.72;99.99
64499;SHT31;51087;55.718;21.122;2023-02-01T06:50:18;2.75;99.99
64499;SHT31;51087;55.718;21.122;2023-02-01T06:52:44;2.79;99.99
64499;SHT31;51087;55.718;21.122;2023-02-01T06:55:10;2.84;99.99
64499;SHT31;51087;55.718;21.122;2023-02-01T06:57:36;2.86;99.99
64499;SHT31;51087;55.718;21.122;2023-02-01T07:00:03;2.87;99.99
64499;SHT31;51087;55.718;21.122;2023-02-01T07:02:28;2.86;99.99
64499;SHT31;51087;55.718;21.122;2023-02-01T07:04:54;2.87;99.99
64499;SHT31;51087;55.718;21.122;2023-02-01T07:07:19;2.86;99.99
64499;SHT31;51087;55.718;21.122;2023-02-01T07:09:45;2.84;99.99
64499;SHT31;51087;55.718;21.122;2023-02-01T07:12:11;2.83;99.99
64499;SHT31;51087;55.718;21.122;2023-02-01T07:14:37;2.83;99.99
64499;SHT31;51087;55.718;21.122;2023-02-01T07:17:03;2.86;99.99
64499;SHT31;51087;55.718;21.122;2023-02-01T07:19:28;2.86;99.99
64499;SHT31;51087;55.718;21.122;2023-02-01T07:21:54;2.86;99.99
64499;SHT31;51087;55.718;21.122;2023-02-01T07:24:19;2.87;99.99
64499;SHT31;51087;55.718;21.122;2023-02-01T07:26:45;2.90;99.99
64499;SHT31;51087;55.718;21.122;2023-02-01T07:29:12;2.89;99.99
64499;SHT31;51087;55.718;21.122;2023-02-01T07:31:38;2.91;99.99
64499;SHT31;51087;55.718;21.122;2023-02-01T07:34:03;2.91;99.99
64499;SHT31;51087;55.718;21.122;2023-02-01T07:36:30;2.89;99.99
64499;SHT31;51087;55.718;21.122;2023-02-01T07:38:57;2.86;99.99
64499;SHT31;51087;55.718;21.122;2023-02-01T07:41:22;2.83;99.99
64499;SHT31;51087;55.718;21.122;2023-02-01T07:43:48;2.76;99.99
64499;SHT31;51087;55.718;21.122;2023-02-01T07:46:15;2.76;99.99
64499;SHT31;51087;55.718;21.122;2023-02-01T07:48:42;2.70;99.99
64499;SHT31;51087;55.718;21.122;2023-02-01T07:51:15;2.67;99.99
64499;SHT31;51087;55.718;21.122;2023-02-01T07:53:41;2.62;99.99
64499;SHT31;51087;55.718;21.122;2023-02-01T07:56:15;2.59;99.99
64499;SHT31;51087;55.718;21.122;2023-02-01T07:58:41;2.50;99.99
64499;SHT31;51087;55.718;21.122;2023-02-01T08:01:15;2.43;99.99
64499;SHT31;51087;55.718;21.122;2023-02-01T08:03:51;2.32;99.99
64499;SHT31;51087;55.718;21.122;2023-02-01T08:06:18;2.26;99.99
64499;SHT31;51087;55.718;21.122;2023-02-01T08:08:45;2.29;99.99
64499;SHT31;51087;55.718;21.122;2023-02-01T08:11:12;2.28;99.99
64499;SHT31;51087;55.718;21.122;2023-02-01T08:13:38;2.29;99.99
64499;SHT31;51087;55.718;21.122;2023-02-01T08:16:06;2.32;99.99
64499;SHT31;51087;55.718;21.122;2023-02-01T08:18:31;2.33;99.99
64499;SHT31;51087;55.718;21.122;2023-02-01T08:21:01;2.35;99.99
64499;SHT31;51087;55.718;21.122;2023-02-01T08:23:27;2.35;99.99
64499;SHT31;51087;55.718;21.122;2023-02-01T08:25:52;2.38;99.99
64499;SHT31;51087;55.718;21.122;2023-02-01T08:28:18;2.36;99.99
64499;SHT31;51087;55.718;21.122;2023-02-01T08:30:43;2.41;99.99
64499;SHT31;51087;55.718;21.122;2023-02-01T08:33:12;2.43;99.99
64499;SHT31;51087;55.718;21.122;2023-02-01T08:35:38;2.49;99.99
64499;SHT31;51087;55.718;21.122;2023-02-01T08:38:04;2.54;99.99
64499;SHT31;51087;55.718;21.122;2023-02-01T08:40:30;2.56;99.99
64499;SHT31;51087;55.718;21.122;2023-02-01T08:42:56;2.60;99.99
64499;SHT31;51087;55.718;21.122;2023-02-01T08:45:26;2.62;99.99
64499;SHT31;51087;55.718;21.122;2023-02-01T08:47:53;2.64;99.99
64499;SHT31;51087;55.718;21.122;2023-02-01T08:50:20;2.66;99.99
64499;SHT31;51087;55.718;21.122;2023-02-01T08:52:46;2.70;99.99
64499;SHT31;51087;55.718;21.122;2023-02-01T08:55:12;2.72;99.99
64499;SHT31;51087;55.718;21.122;2023-02-01T08:57:37;2.72;99.99
64499;SHT31;51087;55.718;21.122;2023-02-01T09:00:05;2.75;99.99
64499;SHT31;51087;55.718;21.122;2023-02-01T09:02:30;2.67;99.99
64499;SHT31;51087;55.718;21.122;2023-02-01T09:04:56;2.67;99.99
64499;SHT31;51087;55.718;21.122;2023-02-01T09:07:21;2.59;99.99
64499;SHT31;51087;55.718;21.122;2023-02-01T09:09:47;2.62;99.99
64499;SHT31;51087;55.718;21.122;2023-02-01T09:12:13;2.67;99.99
64499;SHT31;51087;55.718;21.122;2023-02-01T09:14:38;2.62;99.99
64499;SHT31;51087;55.718;21.122;2023-02-01T09:17:04;2.62;99.99
64499;SHT31;51087;55.718;21.122;2023-02-01T09:19:31;2.57;99.99
64499;SHT31;51087;55.718;21.122;2023-02-01T09:21:57;2.57;99.99
64499;SHT31;51087;55.718;21.122;2023-02-01T09:24:22;2.64;99.99
64499;SHT31;51087;55.718;21.122;2023-02-01T09:26:48;2.72;99.99
64499;SHT31;51087;55.718;21.122;2023-02-01T09:29:14;2.77;99.99
64499;SHT31;51087;55.718;21.122;2023-02-01T09:31:40;2.90;99.99
64499;SHT31;51087;55.718;21.122;2023-02-01T09:34:07;2.94;99.99
64499;SHT31;51087;55.718;21.122;2023-02-01T09:36:33;3.00;99.99
64499;SHT31;51087;55.718;21.122;2023-02-01T09:38:59;2.97;99.99
64499;SHT31;51087;55.718;21.122;2023-02-01T09:41:59;2.97;99.99
64499;SHT31;51087;55.718;21.122;2023-02-01T09:45:02;2.96;99.99
64499;SHT31;51087;55.718;21.122;2023-02-01T09:47:30;2.94;99.99
64499;SHT31;51087;55.718;21.122;2023-02-01T09:50:11;3.00;99.99
64499;SHT31;51087;55.718;21.122;2023-02-01T09:53:04;3.04;99.99
64499;SHT31;51087;55.718;21.122;2023-02-01T09:55:41;3.05;99.99
64499;SHT31;51087;55.718;21.122;2023-02-01T09:58:14;3.05;99.99
64499;SHT31;51087;55.718;21.122;2023-02-01T10:00:47;3.05;99.99
64499;SHT31;51087;55.718;21.122;2023-02-01T10:03:16;3.05;99.99
64499;SHT31;51087;55.718;21.122;2023-02-01T10:17:10;3.19;99.99
64499;SHT31;51087;55.718;21.122;2023-02-01T10:22:11;3.25;99.99
64499;SHT31;51087;55.718;21.122;2023-02-01T10:24:54;3.25;99.99
64499;SHT31;51087;55.718;21.122;2023-02-01T10:27:40;3.31;99.99
64499;SHT31;51087;55.718;21.122;2023-02-01T10:30:18;3.28;99.99
64499;SHT31;51087;55.718;21.122;2023-02-01T10:32:44;3.34;99.99
64499;SHT31;51087;55.718;21.122;2023-02-01T10:35:15;3.34;99.99
64499;SHT31;51087;55.718;21.122;2023-02-01T10:37:42;3.36;99.99
64499;SHT31;51087;55.718;21.122;2023-02-01T10:40:23;3.34;99.99
64499;SHT31;51087;55.718;21.122;2023-02-01T10:42:58;3.35;99.99
64499;SHT31;51087;55.718;21.122;2023-02-01T10:45:27;3.35;99.99
64499;SHT31;51087;55.718;21.122;2023-02-01T10:47:55;3.39;99.99
64499;SHT31;51087;55.718;21.122;2023-02-01T10:53:23;3.43;99.99
64499;SHT31;51087;55.718;21.122;2023-02-01T10:55:54;3.51;99.99
64499;SHT31;51087;55.718;21.122;2023-02-01T10:58:29;3.52;99.99
64499;SHT31;51087;55.718;21.122;2023-02-01T11:01:07;3.56;99.74
64499;SHT31;51087;55.718;21.122;2023-02-01T11:06:26;3.63;99.99
64499;SHT31;51087;55.718;21.122;2023-02-01T11:11:30;3.56;99.15
64499;SHT31;51087;55.718;21.122;2023-02-01T11:14:01;3.56;99.58
64499;SHT31;51087;55.718;21.122;2023-02-01T11:16:51;3.56;99.99
64499;SHT31;51087;55.718;21.122;2023-02-01T11:19:18;3.55;99.90
64499;SHT31;51087;55.718;21.122;2023-02-01T11:21:44;3.55;99.25
64499;SHT31;51087;55.718;21.122;2023-02-01T11:26:49;3.53;98.55
64499;SHT31;51087;55.718;21.122;2023-02-01T11:29:21;3.58;98.92
64499;SHT31;51087;55.718;21.122;2023-02-01T11:31:57;3.58;99.01
64499;SHT31;51087;55.718;21.122;2023-02-01T11:34:30;3.63;99.50
64499;SHT31;51087;55.718;21.122;2023-02-01T11:37:00;3.64;98.92
64499;SHT31;51087;55.718;21.122;2023-02-01T11:39:31;3.70;98.62
64499;SHT31;51087;55.718;21.122;2023-02-01T11:42:04;3.74;98.98
64499;SHT31;51087;55.718;21.122;2023-02-01T11:44:34;3.77;98.95
64499;SHT31;51087;55.718;21.122;2023-02-01T11:47:23;3.82;99.00
64499;SHT31;51087;55.718;21.122;2023-02-01T11:49:51;3.90;98.87
64499;SHT31;51087;55.718;21.122;2023-02-01T12:11:20;4.05;96.87
64499;SHT31;51087;55.718;21.122;2023-02-01T12:23:05;4.11;94.79
64499;SHT31;51087;55.718;21.122;2023-02-01T12:42:22;4.66;93.46
64499;SHT31;51087;55.718;21.122;2023-02-01T12:44:56;4.66;94.15
64499;SHT31;51087;55.718;21.122;2023-02-01T12:47:33;4.73;94.61
64499;SHT31;51087;55.718;21.122;2023-02-01T12:52:51;5.11;93.31
64499;SHT31;51087;55.718;21.122;2023-02-01T12:55:24;5.15;92.59
64499;SHT31;51087;55.718;21.122;2023-02-01T12:58:06;5.07;92.62
64499;SHT31;51087;55.718;21.122;2023-02-01T13:00:38;4.84;93.30
64499;SHT31;51087;55.718;21.122;2023-02-01T13:08:17;4.58;95.06
64499;SHT31;51087;55.718;21.122;2023-02-01T13:10:51;4.55;95.02
64499;SHT31;51087;55.718;21.122;2023-02-01T13:13:25;4.53;95.26
64499;SHT31;51087;55.718;21.122;2023-02-01T13:16:06;4.44;95.25
64499;SHT31;51087;55.718;21.122;2023-02-01T13:18:35;4.59;94.16
64499;SHT31;51087;55.718;21.122;2023-02-01T13:21:10;4.49;94.47
64499;SHT31;51087;55.718;21.122;2023-02-01T13:23:39;4.44;94.92
64499;SHT31;51087;55.718;21.122;2023-02-01T13:26:05;4.44;94.03
64499;SHT31;51087;55.718;21.122;2023-02-01T13:28:51;4.24;94.61
64499;SHT31;51087;55.718;21.122;2023-02-01T13:42:18;3.77;97.57
64499;SHT31;51087;55.718;21.122;2023-02-01T13:44:46;3.76;97.05
64499;SHT31;51087;55.718;21.122;2023-02-01T13:47:33;3.77;97.48
64499;SHT31;51087;55.718;21.122;2023-02-01T13:50:03;3.76;97.28
64499;SHT31;51087;55.718;21.122;2023-02-01T13:52:41;3.74;97.80
64499;SHT31;51087;55.718;21.122;2023-02-01T13:57:46;3.76;98.00
64499;SHT31;51087;55.718;21.122;2023-02-01T14:00:28;3.76;97.73
64499;SHT31;51087;55.718;21.122;2023-02-01T14:10:55;3.84;97.95
64499;SHT31;51087;55.718;21.122;2023-02-01T14:13:28;3.84;97.99
64499;SHT31;51087;55.718;21.122;2023-02-01T14:23:43;3.77;97.26
64499;SHT31;51087;55.718;21.122;2023-02-01T14:26:16;3.74;97.78
64499;SHT31;51087;55.718;21.122;2023-02-01T14:29:09;3.63;98.45
64499;SHT31;51087;55.718;21.122;2023-02-01T14:34:48;3.62;98.43
64499;SHT31;51087;55.718;21.122;2023-02-01T14:42:20;3.69;97.52
64499;SHT31;51087;55.718;21.122;2023-02-01T14:44:49;3.66;97.32
64499;SHT31;51087;55.718;21.122;2023-02-01T14:55:27;3.46;99.14
64499;SHT31;51087;55.718;21.122;2023-02-01T14:57:57;3.45;99.40
64499;SHT31;51087;55.718;21.122;2023-02-01T15:00:25;3.43;99.36
64499;SHT31;51087;55.718;21.122;2023-02-01T15:02:53;3.42;99.65
64499;SHT31;51087;55.718;21.122;2023-02-01T15:05:31;3.40;99.91
64499;SHT31;51087;55.718;21.122;2023-02-01T15:08:07;3.39;99.99
64499;SHT31;51087;55.718;21.122;2023-02-01T15:10:42;3.42;99.99
64499;SHT31;51087;55.718;21.122;2023-02-01T15:13:18;3.34;99.99
64499;SHT31;51087;55.718;21.122;2023-02-01T15:15:44;3.42;99.99
64499;SHT31;51087;55.718;21.122;2023-02-01T15:18:16;3.46;99.99
64499;SHT31;51087;55.718;21.122;2023-02-01T15:20:42;3.45;99.99
64499;SHT31;51087;55.718;21.122;2023-02-01T15:23:17;3.43;99.99
64499;SHT31;51087;55.718;21.122;2023-02-01T15:25:45;3.45;99.99
64499;SHT31;51087;55.718;21.122;2023-02-01T15:28:15;3.55;99.99
64499;SHT31;51087;55.718;21.122;2023-02-01T15:30:53;3.58;99.99
64499;SHT31;51087;55.718;21.122;2023-02-01T15:33:19;3.60;99.99
64499;SHT31;51087;55.718;21.122;2023-02-01T15:43:33;3.53;99.99
64499;SHT31;51087;55.718;21.122;2023-02-01T15:46:00;3.55;99.99
64499;SHT31;51087;55.718;21.122;2023-02-01T15:48:53;3.52;99.99
64499;SHT31;51087;55.718;21.122;2023-02-01T15:51:25;3.58;99.99
64499;SHT31;51087;55.718;21.122;2023-02-01T15:53:56;3.49;99.97
64499;SHT31;51087;55.718;21.122;2023-02-01T15:56:28;3.36;99.99
64499;SHT31;51087;55.718;21.122;2023-02-01T15:58:57;3.22;99.99
64499;SHT31;51087;55.718;21.122;2023-02-01T16:01:24;3.17;99.99
64499;SHT31;51087;55.718;21.122;2023-02-01T16:04:46;3.12;99.99
64499;SHT31;51087;55.718;21.122;2023-02-01T16:06:57;3.15;99.99
64499;SHT31;51087;55.718;21.122;2023-02-01T16:09:48;3.18;99.99
64499;SHT31;51087;55.718;21.122;2023-02-01T16:15:04;3.12;99.99
64499;SHT31;51087;55.718;21.122;2023-02-01T16:17:29;3.14;99.99
64499;SHT31;51087;55.718;21.122;2023-02-01T16:19:55;3.19;99.99
64499;SHT31;51087;55.718;21.122;2023-02-01T16:22:22;3.17;99.99
64499;SHT31;51087;55.718;21.122;2023-02-01T16:24:47;3.15;99.99
64499;SHT31;51087;55.718;21.122;2023-02-01T16:27:13;3.14;99.99
64499;SHT31;51087;55.718;21.122;2023-02-01T16:29:38;3.09;99.99
64499;SHT31;51087;55.718;21.122;2023-02-01T16:32:04;3.22;99.99
64499;SHT31;51087;55.718;21.122;2023-02-01T16:34:30;3.24;99.99
64499;SHT31;51087;55.718;21.122;2023-02-01T16:36:55;3.29;99.99
64499;SHT31;51087;55.718;21.122;2023-02-01T16:39:23;3.26;99.99
64499;SHT31;51087;55.718;21.122;2023-02-01T16:41:49;3.28;99.99
64499;SHT31;51087;55.718;21.122;2023-02-01T16:44:14;3.22;99.99
64499;SHT31;51087;55.718;21.122;2023-02-01T16:46:42;3.26;99.99
64499;SHT31;51087;55.718;21.122;2023-02-01T16:49:19;3.12;99.97
64499;SHT31;51087;55.718;21.122;2023-02-01T16:51:45;2.98;99.99
64499;SHT31;51087;55.718;21.122;2023-02-01T16:54:11;2.90;99.99
64499;SHT31;51087;55.718;21.122;2023-02-01T16:56:36;2.83;99.99
64499;SHT31;51087;55.718;21.122;2023-02-01T16:59:05;2.77;99.99
64499;SHT31;51087;55.718;21.122;2023-02-01T17:01:31;2.76;99.99
64499;SHT31;51087;55.718;21.122;2023-02-01T17:03:57;2.73;99.99
64499;SHT31;51087;55.718;21.122;2023-02-01T17:06:24;2.75;99.99
64499;SHT31;51087;55.718;21.122;2023-02-01T17:08:57;2.76;99.99
64499;SHT31;51087;55.718;21.122;2023-02-01T17:11:23;2.76;99.99
64499;SHT31;51087;55.718;21.122;2023-02-01T17:13:50;2.83;99.99
64499;SHT31;51087;55.718;21.122;2023-02-01T17:16:22;2.84;99.99
64499;SHT31;51087;55.718;21.122;2023-02-01T17:19:05;2.84;99.99
64499;SHT31;51087;55.718;21.122;2023-02-01T17:21:43;2.90;99.99
64499;SHT31;51087;55.718;21.122;2023-02-01T17:24:12;2.90;99.99
64499;SHT31;51087;55.718;21.122;2023-02-01T17:26:39;2.93;99.99
64499;SHT31;51087;55.718;21.122;2023-02-01T17:29:05;2.96;99.99
64499;SHT31;51087;55.718;21.122;2023-02-01T17:31:31;2.96;99.99
64499;SHT31;51087;55.718;21.122;2023-02-01T17:33:57;2.96;99.99
64499;SHT31;51087;55.718;21.122;2023-02-01T17:36:22;2.96;99.99
64499;SHT31;51087;55.718;21.122;2023-02-01T17:38:48;2.90;99.99
64499;SHT31;51087;55.718;21.122;2023-02-01T17:41:14;2.90;99.99
64499;SHT31;51087;55.718;21.122;2023-02-01T17:43:41;2.87;99.99
64499;SHT31;51087;55.718;21.122;2023-02-01T17:46:15;2.91;99.99
64499;SHT31;51087;55.718;21.122;2023-02-01T17:48:40;2.96;99.99
64499;SHT31;51087;55.718;21.122;2023-02-01T17:51:15;3.04;99.99
64499;SHT31;51087;55.718;21.122;2023-02-01T17:53:42;3.07;99.99
64499;SHT31;51087;55.718;21.122;2023-02-01T17:56:27;3.08;99.99
64499;SHT31;51087;55.718;21.122;2023-02-01T17:58:53;3.12;99.99
64499;SHT31;51087;55.718;21.122;2023-02-01T18:01:22;3.15;99.99
64499;SHT31;51087;55.718;21.122;2023-02-01T18:03:50;3.11;99.99
64499;SHT31;51087;55.718;21.122;2023-02-01T18:06:18;3.08;99.99
64499;SHT31;51087;55.718;21.122;2023-02-01T18:08:44;3.09;99.99
64499;SHT31;51087;55.718;21.122;2023-02-01T18:11:16;3.08;99.99
64499;SHT31;51087;55.718;21.122;2023-02-01T18:13:42;3.03;99.99
64499;SHT31;51087;55.718;21.122;2023-02-01T18:16:25;2.98;99.99
64499;SHT31;51087;55.718;21.122;2023-02-01T18:18:51;2.98;99.99
64499;SHT31;51087;55.718;21.122;2023-02-01T18:21:18;2.97;99.99
64499;SHT31;51087;55.718;21.122;2023-02-01T18:23:44;3.03;99.99
64499;SHT31;51087;55.718;21.122;2023-02-01T18:26:14;3.03;99.99
64499;SHT31;51087;55.718;21.122;2023-02-01T18:28:40;3.05;99.99
64499;SHT31;51087;55.718;21.122;2023-02-01T18:31:10;3.08;99.99
64499;SHT31;51087;55.718;21.122;2023-02-01T18:33:41;3.00;99.99
64499;SHT31;51087;55.718;21.122;2023-02-01T18:36:11;2.96;99.99